Time;durP1;ratioP1;P1;durP2;ratioP2;P2;SDS_P1;SDS_P2;PMS_P1;PMS_P2;Temp;Humidity;BMP_temperature;BMP_pressure;BME280_temperature;BME280_humidity;BME280_pressure;Samples;Min_cycle;Max_cycle;Signal;HPM_P1;HPM_P2
2022/10/25 00:01:28;;;;;;;28.50;16.45;;;11.90;99.90;;;;;;5055567;28;20041;-43
2022/10/25 00:03:54;;;;;;;30.30;20.42;;;12.00;99.90;;;;;;5054536;28;20123;-47
2022/10/25 00:06:21;;;;;;;30.05;15.02;;;12.10;99.90;;;;;;5053131;28;20036;-45
2022/10/25 00:08:46;;;;;;;27.95;15.48;;;11.80;99.90;;;;;;5052012;28;20036;-48
2022/10/25 00:11:18;;;;;;;32.03;18.38;;;12.00;99.90;;;;;;5051448;28;20094;-45
2022/10/25 00:13:44;;;;;;;25.52;14.60;;;12.00;99.90;;;;;;5051600;28;20116;-44
2022/10/25 00:16:17;;;;;;;21.45;14.13;;;12.00;99.90;;;;;;5052273;28;20171;-44
2022/10/25 00:18:43;;;;;;;24.83;14.13;;;11.70;99.90;;;;;;5052169;28;20029;-47
2022/10/25 00:21:08;;;;;;;25.25;14.60;;;11.70;99.90;;;;;;5051883;28;20044;-46
2022/10/25 00:23:34;;;;;;;27.20;14.82;;;12.00;99.90;;;;;;5051880;28;20037;-45
2022/10/25 00:26:05;;;;;;;25.90;14.52;;;12.10;99.90;;;;;;5050466;28;20044;-44
2022/10/25 00:28:30;;;;;;;24.30;13.82;;;12.00;99.90;;;;;;5051040;28;20115;-43
2022/10/25 00:31:08;;;;;;;27.77;17.30;;;12.10;99.90;;;;;;5051815;28;20249;-44
2022/10/25 00:33:35;;;;;;;23.77;13.23;;;12.10;99.90;;;;;;5051816;28;20036;-46
2022/10/25 00:36:09;;;;;;;25.17;16.90;;;12.10;99.90;;;;;;5050696;28;20033;-46
2022/10/25 00:38:36;;;;;;;23.00;12.88;;;11.80;99.90;;;;;;5051318;28;20032;-44
2022/10/25 00:41:02;;;;;;;24.02;14.00;;;11.80;99.90;;;;;;5051388;28;20076;-45
2022/10/25 00:43:35;;;;;;;29.27;15.00;;;11.70;99.90;;;;;;5051572;28;20037;-45
2022/10/25 00:46:05;;;;;;;27.30;15.48;;;12.20;99.90;;;;;;5050348;28;20041;-45
2022/10/25 00:48:32;;;;;;;27.25;17.90;;;11.90;99.90;;;;;;5051125;28;20127;-44
2022/10/25 00:50:57;;;;;;;26.63;14.65;;;11.90;99.90;;;;;;5050188;28;20194;-43
2022/10/25 00:53:29;;;;;;;26.65;17.00;;;12.00;99.90;;;;;;5051081;28;20128;-44
2022/10/25 00:56:22;;;;;;;23.85;13.05;;;12.00;99.90;;;;;;5051098;28;20032;-45
2022/10/25 00:58:52;;;;;;;28.35;13.63;;;12.00;99.90;;;;;;5047761;28;20067;-46
2022/10/25 01:01:17;;;;;;;24.55;14.48;;;12.50;99.90;;;;;;5050009;28;20040;-46
2022/10/25 01:03:46;;;;;;;19.67;12.27;;;12.40;99.90;;;;;;5050960;28;20503;-44
2022/10/25 01:06:28;;;;;;;25.65;12.93;;;12.50;99.90;;;;;;5051229;28;20072;-45
2022/10/25 01:08:56;;;;;;;22.50;14.68;;;12.10;99.90;;;;;;5049996;28;20047;-45
2022/10/25 01:11:21;;;;;;;25.98;15.20;;;12.40;99.90;;;;;;5050221;28;20033;-44
2022/10/25 01:13:48;;;;;;;19.65;11.45;;;12.10;99.90;;;;;;5050938;28;20047;-46
2022/10/25 01:16:33;;;;;;;23.05;14.10;;;12.10;99.90;;;;;;5049292;28;20091;-43
2022/10/25 01:19:21;;;;;;;23.30;12.35;;;12.40;99.90;;;;;;5050573;28;20157;-46
2022/10/25 01:21:52;;;;;;;17.55;11.85;;;12.60;99.90;;;;;;5050547;28;20122;-44
2022/10/25 01:24:27;;;;;;;21.27;13.95;;;12.40;99.90;;;;;;5051055;28;20033;-46
2022/10/25 01:26:53;;;;;;;25.15;11.77;;;12.10;99.90;;;;;;5049917;28;20468;-45
2022/10/25 01:29:38;;;;;;;22.08;14.00;;;12.40;99.90;;;;;;5050404;28;20033;-45
2022/10/25 01:32:30;;;;;;;20.25;10.23;;;12.30;99.90;;;;;;5049211;28;20044;-46
2022/10/25 01:35:03;;;;;;;24.10;12.18;;;12.20;99.90;;;;;;5050051;28;20404;-44
2022/10/25 01:38:13;;;;;;;23.05;13.88;;;12.50;99.90;;;;;;5049891;28;20033;-45
2022/10/25 01:40:48;;;;;;;23.30;11.30;;;12.20;99.90;;;;;;5029059;28;20093;-44
2022/10/25 01:43:35;;;;;;;22.90;12.27;;;12.70;99.90;;;;;;5049097;28;20083;-44
2022/10/25 01:46:38;;;;;;;24.02;12.35;;;12.50;99.90;;;;;;5049816;28;20041;-44
2022/10/25 01:49:10;;;;;;;21.45;12.13;;;12.80;99.90;;;;;;5048199;28;20539;-45
2022/10/25 01:51:36;;;;;;;23.52;14.70;;;12.70;99.90;;;;;;5049963;28;20029;-44
2022/10/25 01:54:02;;;;;;;21.88;14.40;;;12.50;99.90;;;;;;5050236;28;20503;-44
2022/10/25 01:56:43;;;;;;;26.25;13.20;;;12.70;99.90;;;;;;5050307;28;20044;-44
2022/10/25 01:59:20;;;;;;;22.92;13.45;;;12.50;99.90;;;;;;5048962;28;20033;-43
2022/10/25 02:02:35;;;;;;;23.02;15.50;;;12.80;99.90;;;;;;5048398;28;20052;-44
2022/10/25 02:05:01;;;;;;;22.08;12.25;;;13.00;99.90;;;;;;5033401;28;20131;-45
2022/10/25 02:08:04;;;;;;;20.13;14.75;;;12.90;99.90;;;;;;5049862;28;20140;-47
2022/10/25 02:11:02;;;;;;;25.35;14.80;;;13.00;99.90;;;;;;5049144;28;20044;-44
2022/10/25 02:13:38;;;;;;;26.52;13.65;;;13.00;99.90;;;;;;5026121;28;20045;-43
2022/10/25 02:16:11;;;;;;;23.38;16.20;;;13.00;99.90;;;;;;5049800;28;20485;-49
2022/10/25 02:18:43;;;;;;;25.83;15.10;;;13.00;99.90;;;;;;5049834;28;20392;-44
2022/10/25 02:21:11;;;;;;;26.70;16.20;;;12.90;99.90;;;;;;5048926;28;20048;-46
2022/10/25 02:23:38;;;;;;;26.55;13.98;;;13.10;99.90;;;;;;5049207;28;20047;-45
2022/10/25 02:26:06;;;;;;;26.00;13.73;;;12.50;99.90;;;;;;5048269;28;20041;-48
2022/10/25 02:28:33;;;;;;;23.83;15.05;;;12.60;99.90;;;;;;5047005;28;20476;-48
2022/10/25 02:31:00;;;;;;;24.85;15.70;;;13.00;99.90;;;;;;5049115;28;20037;-46
2022/10/25 02:33:26;;;;;;;25.45;13.65;;;12.90;99.90;;;;;;5048323;28;20116;-44
2022/10/25 02:36:15;;;;;;;23.63;15.63;;;12.80;99.90;;;;;;5049808;28;20116;-44
2022/10/25 02:38:42;;;;;;;25.80;15.23;;;12.60;99.90;;;;;;5048182;28;20033;-44
2022/10/25 02:41:09;;;;;;;29.73;15.85;;;12.50;99.90;;;;;;5048972;28;20029;-45
2022/10/25 02:43:34;;;;;;;23.55;15.55;;;12.40;99.90;;;;;;5049771;28;20032;-46
2022/10/25 02:46:12;;;;;;;23.88;13.50;;;12.40;99.90;;;;;;5049918;28;20526;-47
2022/10/25 02:48:37;;;;;;;27.67;14.13;;;12.50;99.90;;;;;;5049131;28;20519;-48
2022/10/25 02:51:07;;;;;;;23.88;15.52;;;12.70;99.90;;;;;;5049025;28;20040;-44
2022/10/25 02:53:33;;;;;;;28.58;16.08;;;12.80;99.90;;;;;;5049326;28;20040;-46
2022/10/25 02:56:04;;;;;;;29.83;13.40;;;12.70;99.90;;;;;;5049514;28;20037;-45
2022/10/25 02:58:33;;;;;;;28.33;14.90;;;12.50;99.90;;;;;;5049467;28;20041;-48
2022/10/25 03:00:59;;;;;;;29.30;14.77;;;12.60;99.90;;;;;;5049290;28;20045;-43
2022/10/25 03:03:26;;;;;;;26.15;16.92;;;12.80;99.90;;;;;;5048756;28;20106;-44
2022/10/25 03:05:52;;;;;;;24.48;15.40;;;12.80;99.90;;;;;;5048884;28;20025;-46
2022/10/25 03:08:19;;;;;;;29.52;16.75;;;12.40;99.90;;;;;;5048750;28;20086;-44
2022/10/25 03:10:44;;;;;;;26.20;14.43;;;12.70;99.90;;;;;;5048635;28;20073;-44
2022/10/25 03:13:10;;;;;;;33.25;16.98;;;12.30;99.90;;;;;;5049191;28;20060;-47
2022/10/25 03:15:36;;;;;;;25.42;17.40;;;12.50;99.90;;;;;;5049283;28;20087;-46
2022/10/25 03:18:02;;;;;;;29.00;14.57;;;12.80;99.90;;;;;;5049133;28;20033;-44
2022/10/25 03:20:28;;;;;;;27.42;16.92;;;12.20;99.90;;;;;;5049357;28;20412;-44
2022/10/25 03:22:53;;;;;;;28.33;16.75;;;12.70;99.90;;;;;;5049069;28;20049;-46
2022/10/25 03:25:19;;;;;;;28.63;15.18;;;12.60;99.90;;;;;;5047776;28;20074;-45
2022/10/25 03:27:45;;;;;;;27.15;16.55;;;12.80;99.90;;;;;;5048666;28;20037;-45
2022/10/25 03:30:14;;;;;;;27.67;17.23;;;12.40;99.90;;;;;;5049639;28;20040;-44
2022/10/25 03:32:40;;;;;;;30.55;14.95;;;12.70;99.90;;;;;;5048318;28;20044;-44
2022/10/25 03:35:06;;;;;;;25.85;17.52;;;12.50;99.90;;;;;;5049209;28;20476;-44
2022/10/25 03:37:32;;;;;;;27.25;14.75;;;12.30;99.90;;;;;;5048836;28;20396;-44
2022/10/25 03:39:57;;;;;;;30.10;17.42;;;12.40;99.90;;;;;;5049476;28;20040;-44
2022/10/25 03:42:23;;;;;;;30.13;17.92;;;12.70;99.90;;;;;;5052279;28;20110;-46
2022/10/25 03:44:49;;;;;;;28.40;17.23;;;12.20;99.90;;;;;;5052692;28;20041;-45
2022/10/25 03:47:15;;;;;;;26.40;16.77;;;12.50;99.90;;;;;;5052655;28;20056;-45
2022/10/25 03:49:41;;;;;;;31.58;18.10;;;12.70;99.90;;;;;;5052537;28;20041;-43
2022/10/25 03:52:07;;;;;;;28.58;13.98;;;12.50;99.90;;;;;;5049770;28;20460;-45
2022/10/25 03:54:35;;;;;;;33.15;17.90;;;12.30;99.90;;;;;;5052640;28;20033;-47
2022/10/25 03:57:02;;;;;;;29.02;17.58;;;12.50;99.90;;;;;;5051326;28;20048;-45
2022/10/25 03:59:27;;;;;;;29.73;18.02;;;12.90;99.90;;;;;;5052438;28;20087;-44
2022/10/25 04:01:53;;;;;;;33.63;14.68;;;12.70;99.90;;;;;;5052436;28;20439;-45
2022/10/25 04:04:19;;;;;;;26.08;14.40;;;12.70;99.90;;;;;;5052017;28;20033;-44
2022/10/25 04:06:44;;;;;;;27.73;16.67;;;12.70;99.90;;;;;;5052225;28;20025;-45
2022/10/25 04:09:10;;;;;;;28.40;16.73;;;12.70;99.90;;;;;;5052242;28;20041;-45
2022/10/25 04:11:36;;;;;;;25.85;13.90;;;12.40;99.90;;;;;;5049971;28;20033;-44
2022/10/25 04:14:02;;;;;;;24.77;13.93;;;12.70;99.90;;;;;;5051123;28;20036;-46
2022/10/25 04:16:27;;;;;;;28.35;16.20;;;12.50;99.90;;;;;;5052568;28;20043;-44
2022/10/25 04:18:53;;;;;;;31.80;13.35;;;12.60;99.90;;;;;;5052160;28;20044;-46
2022/10/25 04:21:20;;;;;;;27.67;13.15;;;12.50;99.90;;;;;;5051640;28;20041;-46
2022/10/25 04:23:46;;;;;;;28.90;14.93;;;12.60;99.90;;;;;;5052081;28;20380;-45
2022/10/25 04:26:16;;;;;;;29.50;14.07;;;12.60;99.90;;;;;;5051931;28;20048;-43
2022/10/25 04:28:42;;;;;;;26.63;14.65;;;12.60;99.90;;;;;;5050921;28;20041;-47
2022/10/25 04:31:08;;;;;;;28.35;12.98;;;12.30;99.90;;;;;;5051943;28;20473;-47
2022/10/25 04:33:33;;;;;;;28.23;12.48;;;12.70;99.90;;;;;;5051837;28;20048;-47
2022/10/25 04:35:59;;;;;;;25.98;14.23;;;12.30;99.90;;;;;;5050107;28;20462;-47
2022/10/25 04:38:25;;;;;;;23.98;11.50;;;12.10;99.90;;;;;;5051798;28;20037;-45
2022/10/25 04:40:55;;;;;;;27.63;10.98;;;12.20;99.90;;;;;;5051342;28;20054;-49
2022/10/25 04:43:21;;;;;;;24.60;13.38;;;12.30;99.90;;;;;;5050213;28;20047;-46
2022/10/25 04:45:47;;;;;;;20.38;10.73;;;12.00;99.90;;;;;;5051073;28;20041;-45
2022/10/25 04:48:13;;;;;;;27.13;13.07;;;12.30;99.90;;;;;;5050720;28;20142;-43
2022/10/25 04:50:39;;;;;;;21.02;9.88;;;12.00;99.90;;;;;;5051583;28;20079;-46
2022/10/25 04:53:05;;;;;;;25.35;10.40;;;12.70;99.90;;;;;;5050731;28;20033;-47
2022/10/25 04:55:31;;;;;;;24.98;10.45;;;12.10;99.90;;;;;;5051334;28;20041;-46
2022/10/25 04:57:56;;;;;;;23.60;9.68;;;12.40;99.90;;;;;;5052208;28;20047;-45
2022/10/25 05:00:23;;;;;;;24.02;11.73;;;12.40;99.90;;;;;;5051564;28;20052;-45
2022/10/25 05:02:52;;;;;;;22.20;12.27;;;12.30;99.90;;;;;;5049601;28;20037;-45
2022/10/25 05:05:19;;;;;;;25.23;10.52;;;12.50;99.90;;;;;;5051196;28;20040;-45
2022/10/25 05:07:44;;;;;;;19.73;11.30;;;12.50;99.90;;;;;;5051031;28;20059;-46
2022/10/25 05:10:10;;;;;;;17.55;9.57;;;12.50;99.90;;;;;;5051177;28;20033;-44
2022/10/25 05:12:37;;;;;;;24.02;10.23;;;12.50;99.90;;;;;;5051333;28;20032;-44
2022/10/25 05:15:03;;;;;;;19.25;9.90;;;12.50;99.90;;;;;;5051190;28;20051;-46
2022/10/25 05:17:29;;;;;;;20.77;12.13;;;12.00;99.90;;;;;;5051036;28;20041;-45
2022/10/25 05:19:55;;;;;;;22.13;10.10;;;12.50;99.90;;;;;;5050646;28;20500;-44
2022/10/25 05:22:20;;;;;;;22.85;12.75;;;12.10;99.90;;;;;;5050456;28;20032;-45
2022/10/25 05:24:46;;;;;;;30.38;11.77;;;12.00;99.90;;;;;;5050894;28;20037;-45
2022/10/25 05:27:11;;;;;;;27.35;13.32;;;12.10;99.90;;;;;;5050781;28;20384;-45
2022/10/25 05:29:37;;;;;;;29.00;11.63;;;11.90;99.90;;;;;;5050708;28;20500;-44
2022/10/25 05:32:03;;;;;;;22.63;12.30;;;12.10;99.90;;;;;;5049623;28;20052;-46
2022/10/25 05:34:29;;;;;;;22.13;11.70;;;12.00;99.90;;;;;;5050599;28;20039;-45
2022/10/25 05:36:54;;;;;;;31.00;15.02;;;11.90;99.90;;;;;;5050444;28;20116;-44
2022/10/25 05:39:20;;;;;;;28.10;12.27;;;12.10;99.90;;;;;;5048955;28;20045;-45
2022/10/25 05:41:46;;;;;;;27.90;14.30;;;12.30;99.90;;;;;;5049675;28;20434;-44
2022/10/25 05:44:13;;;;;;;28.23;12.63;;;12.30;99.90;;;;;;5050097;28;20041;-45
2022/10/25 05:46:39;;;;;;;27.95;14.63;;;11.80;99.90;;;;;;5050123;28;20044;-44
2022/10/25 05:49:05;;;;;;;31.95;12.35;;;11.80;99.90;;;;;;5050001;28;20052;-44
2022/10/25 05:51:32;;;;;;;29.55;13.07;;;12.40;99.90;;;;;;5049585;28;20041;-44
2022/10/25 05:54:00;;;;;;;35.03;16.30;;;12.30;99.90;;;;;;5049161;28;20432;-44
2022/10/25 05:56:27;;;;;;;33.92;16.02;;;12.20;99.90;;;;;;5050113;28;20129;-45
2022/10/25 05:58:57;;;;;;;28.73;12.82;;;12.10;99.90;;;;;;5049889;28;20055;-47
2022/10/25 06:01:24;;;;;;;33.28;14.15;;;12.10;99.90;;;;;;5049564;28;20570;-43
2022/10/25 06:03:52;;;;;;;29.33;13.65;;;12.40;99.90;;;;;;5049868;28;20052;-45
2022/10/25 06:06:18;;;;;;;27.58;14.27;;;12.10;99.90;;;;;;5049775;28;20036;-46
2022/10/25 06:08:44;;;;;;;26.67;13.52;;;12.30;99.90;;;;;;5050237;28;20041;-47
2022/10/25 06:11:16;;;;;;;29.88;14.15;;;12.00;99.90;;;;;;5047821;28;20037;-46
2022/10/25 06:13:41;;;;;;;39.50;15.23;;;12.50;99.90;;;;;;5049697;28;20032;-44
2022/10/25 06:16:12;;;;;;;34.60;13.23;;;12.10;99.90;;;;;;5049897;28;20037;-44
2022/10/25 06:18:38;;;;;;;35.03;16.10;;;12.70;99.90;;;;;;5049889;28;20061;-45
2022/10/25 06:21:09;;;;;;;32.65;15.30;;;12.60;99.90;;;;;;5048365;28;20498;-44
2022/10/25 06:23:35;;;;;;;31.65;12.98;;;12.70;99.90;;;;;;5048062;28;20088;-47
2022/10/25 06:26:05;;;;;;;33.75;13.88;;;12.10;99.90;;;;;;5048645;28;20036;-45
2022/10/25 06:28:32;;;;;;;30.58;15.25;;;12.60;99.90;;;;;;5048092;28;20088;-44
2022/10/25 06:31:02;;;;;;;36.55;14.70;;;12.60;99.90;;;;;;5048474;28;20052;-46
2022/10/25 06:33:28;;;;;;;36.72;16.40;;;12.20;99.90;;;;;;5049102;28;20091;-45
2022/10/25 06:35:58;;;;;;;31.48;13.48;;;12.60;99.90;;;;;;5040947;28;20698;-45
2022/10/25 06:38:25;;;;;;;33.55;16.67;;;12.40;99.90;;;;;;5040068;28;20040;-46
2022/10/25 06:40:57;;;;;;;34.90;16.15;;;12.10;99.90;;;;;;5039825;28;21458;-47
2022/10/25 06:43:22;;;;;;;33.05;16.50;;;12.80;99.90;;;;;;5039531;28;20527;-46
2022/10/25 06:45:48;;;;;;;32.92;14.30;;;12.70;99.90;;;;;;5039600;28;20059;-46
2022/10/25 06:48:13;;;;;;;29.60;13.45;;;12.60;99.90;;;;;;5038035;28;20041;-44
2022/10/25 06:50:39;;;;;;;34.17;14.27;;;12.50;99.90;;;;;;5040012;28;20052;-45
2022/10/25 06:53:05;;;;;;;34.40;15.80;;;12.50;99.90;;;;;;5039489;28;20180;-46
2022/10/25 06:55:30;;;;;;;31.52;16.08;;;12.70;99.90;;;;;;5040143;28;20150;-46
2022/10/25 06:57:56;;;;;;;38.88;14.00;;;12.50;99.90;;;;;;5054647;28;20701;-45
2022/10/25 07:00:22;;;;;;;37.90;15.05;;;12.70;99.90;;;;;;5040376;28;20469;-45
2022/10/25 07:02:58;;;;;;;36.60;15.35;;;12.40;99.90;;;;;;5039958;28;20041;-46
2022/10/25 07:05:25;;;;;;;33.45;18.77;;;12.70;99.90;;;;;;5039338;28;20048;-48
2022/10/25 07:07:51;;;;;;;31.80;17.73;;;12.20;99.90;;;;;;5040563;28;20044;-44
2022/10/25 07:10:18;;;;;;;33.35;17.88;;;12.30;99.90;;;;;;5040008;28;20108;-45
2022/10/25 07:12:43;;;;;;;33.75;15.20;;;12.50;99.90;;;;;;5039490;28;20037;-45
2022/10/25 07:15:09;;;;;;;30.98;16.00;;;12.20;99.90;;;;;;5040848;28;20032;-44
2022/10/25 07:17:35;;;;;;;35.10;19.40;;;12.30;99.90;;;;;;5044072;28;20376;-46
2022/10/25 07:20:01;;;;;;;38.28;19.95;;;12.80;99.90;;;;;;5044025;28;20041;-45
2022/10/25 07:22:27;;;;;;;34.47;16.15;;;12.50;99.90;;;;;;5042670;28;20443;-44
2022/10/25 07:24:53;;;;;;;36.42;17.50;;;12.90;99.90;;;;;;5043960;28;20458;-45
2022/10/25 07:27:18;;;;;;;38.72;20.30;;;12.80;99.90;;;;;;5043128;28;20090;-47
2022/10/25 07:29:44;;;;;;;41.63;19.65;;;13.10;99.90;;;;;;5043664;28;20115;-46
2022/10/25 07:32:10;;;;;;;35.35;16.02;;;12.90;99.90;;;;;;5044117;28;20175;-47
2022/10/25 07:34:35;;;;;;;36.78;18.25;;;12.70;99.90;;;;;;5042594;28;20029;-46
2022/10/25 07:37:01;;;;;;;33.97;16.80;;;12.90;99.90;;;;;;5043101;28;20090;-46
2022/10/25 07:39:27;;;;;;;33.53;19.02;;;12.60;99.90;;;;;;5043069;28;20032;-46
2022/10/25 07:41:53;;;;;;;29.63;16.73;;;13.00;99.90;;;;;;5042401;28;20040;-47
2022/10/25 07:44:22;;;;;;;37.55;17.10;;;12.70;99.90;;;;;;5041891;28;20041;-47
2022/10/25 07:46:49;;;;;;;35.67;19.60;;;13.10;99.90;;;;;;5043723;28;20037;-44
2022/10/25 07:49:15;;;;;;;34.42;20.60;;;12.70;99.90;;;;;;5042984;28;20567;-45
2022/10/25 07:51:40;;;;;;;32.70;20.77;;;13.20;99.90;;;;;;5043993;28;20072;-48
2022/10/25 07:54:06;;;;;;;31.02;18.10;;;12.80;99.90;;;;;;5042243;28;20087;-45
2022/10/25 07:56:32;;;;;;;35.25;19.90;;;13.40;99.90;;;;;;5042274;28;20064;-44
2022/10/25 07:58:58;;;;;;;35.72;19.10;;;12.90;99.90;;;;;;5041540;28;20041;-46
2022/10/25 08:01:26;;;;;;;35.47;17.42;;;13.20;99.90;;;;;;5042594;28;20040;-47
2022/10/25 08:03:53;;;;;;;29.48;18.50;;;13.50;99.90;;;;;;5043553;28;20476;-46
2022/10/25 08:06:23;;;;;;;35.35;19.88;;;13.60;99.90;;;;;;5042814;28;20037;-45
2022/10/25 08:08:48;;;;;;;27.77;17.63;;;13.30;99.90;;;;;;5041953;28;20029;-44
2022/10/25 08:11:14;;;;;;;28.98;17.50;;;13.50;99.90;;;;;;5042407;28;20033;-50
2022/10/25 08:13:40;;;;;;;34.28;17.13;;;13.60;99.90;;;;;;5041846;28;20037;-46
2022/10/25 08:16:06;;;;;;;26.35;16.42;;;13.70;99.90;;;;;;5042743;28;20036;-45
2022/10/25 08:18:33;;;;;;;31.05;17.00;;;13.30;99.90;;;;;;5042558;28;20061;-44
2022/10/25 08:21:01;;;;;;;32.45;15.15;;;13.60;99.90;;;;;;5038425;28;20025;-45
2022/10/25 08:23:27;;;;;;;24.75;16.13;;;13.30;99.90;;;;;;5037919;28;20403;-46
2022/10/25 08:25:53;;;;;;;29.50;16.15;;;13.80;99.90;;;;;;5041177;28;20071;-46
2022/10/25 08:28:19;;;;;;;22.55;15.73;;;13.90;99.90;;;;;;5038675;28;20500;-46
2022/10/25 08:30:44;;;;;;;23.63;14.77;;;13.90;99.90;;;;;;5041332;28;20057;-45
2022/10/25 08:33:10;;;;;;;26.90;15.00;;;13.70;99.90;;;;;;5041680;28;20052;-46
2022/10/25 08:35:36;;;;;;;23.73;14.25;;;14.00;99.90;;;;;;5041762;28;20037;-46
2022/10/25 08:38:03;;;;;;;27.77;14.88;;;13.80;99.90;;;;;;5041615;28;20088;-45
2022/10/25 08:40:46;;;;;;;26.52;14.23;;;14.00;99.90;;;;;;5040200;28;20412;-46
2022/10/25 08:43:34;;;;;;;21.25;13.23;;;13.80;99.90;;;;;;5039980;28;20358;-47
2022/10/25 08:46:04;;;;;;;26.90;14.13;;;14.10;99.90;;;;;;5039121;28;20033;-44
2022/10/25 08:48:35;;;;;;;22.30;13.48;;;14.30;99.90;;;;;;5039283;28;20055;-45
2022/10/25 08:51:11;;;;;;;20.77;13.32;;;14.30;99.90;;;;;;5041673;28;20059;-45
2022/10/25 08:53:47;;;;;;;21.63;13.15;;;14.00;99.90;;;;;;5040461;28;20064;-46
2022/10/25 08:56:16;;;;;;;25.23;13.13;;;14.50;99.90;;;;;;5039394;28;20033;-47
2022/10/25 08:58:49;;;;;;;18.13;12.75;;;14.30;99.90;;;;;;5039093;28;20037;-48
2022/10/25 09:01:22;;;;;;;24.40;13.43;;;14.40;99.90;;;;;;5039857;28;20025;-47
2022/10/25 09:03:48;;;;;;;21.00;12.98;;;14.30;99.90;;;;;;5040903;28;20029;-45
2022/10/25 09:06:28;;;;;;;22.38;12.15;;;14.50;99.90;;;;;;5040334;28;20037;-47
2022/10/25 09:08:59;;;;;;;21.52;11.93;;;14.40;99.90;;;;;;5038754;28;20435;-46
2022/10/25 09:11:47;;;;;;;20.90;11.45;;;14.50;99.90;;;;;;5038204;28;20037;-48
2022/10/25 09:14:24;;;;;;;18.05;10.80;;;14.50;99.90;;;;;;5038875;28;20090;-46
2022/10/25 09:17:03;;;;;;;17.13;10.55;;;14.60;99.90;;;;;;5040381;28;20092;-46
2022/10/25 09:19:35;;;;;;;18.83;11.05;;;14.90;99.90;;;;;;5039473;28;20048;-44
2022/10/25 09:22:38;;;;;;;19.35;10.18;;;14.70;99.90;;;;;;5038666;28;20308;-48
2022/10/25 09:25:28;;;;;;;15.88;10.23;;;14.80;99.90;;;;;;5032528;28;20481;-44
2022/10/25 09:27:59;;;;;;;18.50;10.48;;;14.80;99.90;;;;;;5036975;28;20041;-46
2022/10/25 09:30:26;;;;;;;20.42;10.00;;;14.80;99.90;;;;;;5037822;28;20032;-45
2022/10/25 09:33:01;;;;;;;14.65;8.80;;;15.10;99.90;;;;;;5037262;28;20028;-46
2022/10/25 09:35:34;;;;;;;18.80;8.90;;;14.90;99.90;;;;;;5039639;28;20091;-45
2022/10/25 09:38:09;;;;;;;16.55;9.10;;;15.00;99.90;;;;;;5037750;28;20380;-44
2022/10/25 09:40:44;;;;;;;19.55;8.63;;;15.00;99.90;;;;;;5038529;28;20124;-45
2022/10/25 09:43:17;;;;;;;17.13;8.60;;;15.10;99.90;;;;;;5036959;28;20036;-45
2022/10/25 09:45:50;;;;;;;15.70;8.70;;;15.00;99.90;;;;;;5035488;28;20102;-45
2022/10/25 09:48:31;;;;;;;16.37;8.57;;;15.00;99.90;;;;;;5036259;28;20049;-46
2022/10/25 09:51:04;;;;;;;17.63;8.25;;;15.10;99.90;;;;;;5034658;28;20037;-47
2022/10/25 09:53:32;;;;;;;12.57;7.43;;;15.20;99.90;;;;;;5034734;28;20025;-45
2022/10/25 09:55:59;;;;;;;18.73;8.90;;;15.10;99.90;;;;;;5033056;28;20040;-48
2022/10/25 09:58:31;;;;;;;15.13;8.00;;;15.10;99.90;;;;;;5032477;28;20041;-44
2022/10/25 10:01:02;;;;;;;16.85;8.18;;;15.10;99.90;;;;;;5035776;28;20041;-46
2022/10/25 10:03:31;;;;;;;14.27;7.45;;;15.10;99.90;;;;;;5034998;28;20579;-43
2022/10/25 10:06:01;;;;;;;15.20;7.90;;;15.00;99.90;;;;;;5035311;28;20067;-47
2022/10/25 10:08:30;;;;;;;14.68;8.20;;;15.00;99.90;;;;;;5052084;28;20045;-45
2022/10/25 10:10:57;;;;;;;14.13;7.55;;;15.00;99.90;;;;;;5037281;28;20049;-47
2022/10/25 10:14:00;;;;;;;15.43;8.75;;;14.80;99.90;;;;;;5037360;28;20511;-45
2022/10/25 10:16:38;;;;;;;13.68;7.65;;;15.00;99.90;;;;;;5033148;28;20083;-46
2022/10/25 10:19:17;;;;;;;14.63;7.93;;;15.30;99.90;;;;;;5035528;28;20493;-47
2022/10/25 10:21:49;;;;;;;17.10;7.88;;;15.40;99.90;;;;;;5034448;28;20078;-48
2022/10/25 10:24:26;;;;;;;15.35;7.50;;;15.60;99.90;;;;;;5034877;28;20365;-45
2022/10/25 10:26:56;;;;;;;13.60;7.07;;;15.90;99.90;;;;;;5035073;28;20481;-45
2022/10/25 10:29:24;;;;;;;13.60;7.10;;;15.80;99.90;;;;;;5035167;28;20042;-45
2022/10/25 10:31:53;;;;;;;14.75;6.65;;;15.70;99.90;;;;;;5033461;28;20033;-46
2022/10/25 10:34:49;;;;;;;10.82;5.80;;;15.90;99.90;;;;;;5035510;28;20549;-46
2022/10/25 10:37:16;;;;;;;11.55;6.30;;;16.00;99.90;;;;;;5036953;28;20033;-47
2022/10/25 10:39:58;;;;;;;15.07;6.10;;;16.10;99.90;;;;;;5036208;28;20122;-46
2022/10/25 10:42:33;;;;;;;12.25;6.10;;;16.30;99.90;;;;;;5038446;28;20075;-45
2022/10/25 10:45:16;;;;;;;11.38;5.65;;;16.50;99.90;;;;;;5039182;28;20052;-47
2022/10/25 10:47:55;;;;;;;11.73;5.38;;;16.50;99.90;;;;;;5035941;28;20076;-47
2022/10/25 10:50:25;;;;;;;15.73;5.88;;;16.60;99.90;;;;;;5036649;28;20100;-46
2022/10/25 10:52:53;;;;;;;13.82;5.82;;;16.40;99.90;;;;;;5038373;28;20102;-46
2022/10/25 10:55:24;;;;;;;14.65;5.88;;;16.20;99.90;;;;;;5035992;28;20039;-47
2022/10/25 10:57:53;;;;;;;13.57;5.50;;;15.90;99.90;;;;;;5035806;28;20029;-47
2022/10/25 11:00:24;;;;;;;11.77;5.47;;;15.90;99.90;;;;;;5035735;28;20120;-44
2022/10/25 11:02:50;;;;;;;12.07;5.70;;;16.00;99.90;;;;;;5036878;28;20041;-47
2022/10/25 11:05:22;;;;;;;11.85;5.28;;;16.10;99.90;;;;;;5038718;28;20036;-45
2022/10/25 11:07:59;;;;;;;13.07;5.70;;;16.30;99.90;;;;;;5039544;28;20040;-45
2022/10/25 11:10:32;;;;;;;11.50;5.22;;;16.40;99.90;;;;;;5037544;28;20040;-46
2022/10/25 11:13:05;;;;;;;13.98;5.30;;;16.70;99.90;;;;;;5037451;28;20392;-46
2022/10/25 11:16:22;;;;;;;9.47;4.37;;;16.90;99.90;;;;;;5038426;28;20166;-46
2022/10/25 11:18:53;;;;;;;10.70;4.45;;;17.00;99.90;;;;;;5031593;28;20056;-47
2022/10/25 11:21:56;;;;;;;9.90;4.05;;;16.90;99.90;;;;;;5038367;28;20029;-48
2022/10/25 11:24:27;;;;;;;11.63;4.03;;;16.80;99.90;;;;;;5037601;28;20044;-44
2022/10/25 11:27:15;;;;;;;10.60;4.03;;;16.60;99.90;;;;;;5038272;28;20084;-47
2022/10/25 11:29:53;;;;;;;13.55;4.40;;;16.60;99.90;;;;;;5040135;28;20159;-44
2022/10/25 11:32:38;;;;;;;12.00;4.20;;;16.50;99.90;;;;;;5038267;28;20035;-44
2022/10/25 11:35:34;;;;;;;10.77;4.45;;;16.60;99.90;;;;;;5040203;28;20037;-48
2022/10/25 11:38:12;;;;;;;10.60;4.35;;;16.70;99.90;;;;;;5040191;28;20099;-45
2022/10/25 11:40:42;;;;;;;9.80;3.67;;;16.80;99.90;;;;;;5039856;28;20036;-48
2022/10/25 11:43:44;;;;;;;9.45;3.75;;;16.70;99.90;;;;;;5039403;28;20044;-48
2022/10/25 11:46:16;;;;;;;10.63;4.18;;;16.60;99.90;;;;;;5039527;28;20140;-47
2022/10/25 11:49:11;;;;;;;8.65;3.67;;;16.60;99.90;;;;;;5039462;28;20049;-46
2022/10/25 11:51:55;;;;;;;10.18;3.17;;;16.70;99.90;;;;;;5040281;28;20037;-47
2022/10/25 11:54:29;;;;;;;8.07;3.47;;;16.80;99.90;;;;;;5037626;28;20115;-47
2022/10/25 11:57:19;;;;;;;11.70;3.53;;;16.70;99.90;;;;;;5038684;28;20061;-44
2022/10/25 12:00:17;;;;;;;7.97;3.38;;;16.90;99.90;;;;;;5038321;28;20049;-47
2022/10/25 12:03:08;;;;;;;7.82;3.35;;;17.10;99.90;;;;;;5042919;28;20480;-45
2022/10/25 12:05:46;;;;;;;8.63;3.85;;;17.60;99.90;;;;;;5041688;28;20037;-46
2022/10/25 12:08:47;;;;;;;10.60;3.75;;;17.50;99.90;;;;;;5042277;28;20053;-47
2022/10/25 12:11:36;;;;;;;12.18;4.13;;;17.50;99.90;;;;;;5023244;28;20465;-44
2022/10/25 12:14:11;;;;;;;8.48;3.28;;;17.70;99.90;;;;;;5042704;28;20400;-48
2022/10/25 12:16:39;;;;;;;7.43;3.28;;;17.90;99.90;;;;;;5043862;28;20029;-48
2022/10/25 12:19:23;;;;;;;9.45;3.38;;;18.00;99.90;;;;;;5042742;28;20845;-45
2022/10/25 12:21:53;;;;;;;11.00;3.80;;;17.80;99.90;;;;;;5040998;28;20562;-44
2022/10/25 12:24:25;;;;;;;10.27;3.85;;;17.50;99.90;;;;;;5041902;28;20040;-44
2022/10/25 12:26:53;;;;;;;10.02;3.58;;;17.30;99.90;;;;;;5042862;28;20473;-44
2022/10/25 12:29:37;;;;;;;6.63;3.22;;;17.20;99.90;;;;;;5041654;28;20104;-44
2022/10/25 12:32:19;;;;;;;8.93;3.50;;;17.30;99.90;;;;;;5041460;28;20041;-45
2022/10/25 12:34:53;;;;;;;10.45;3.25;;;17.30;99.90;;;;;;5042477;28;20045;-46
2022/10/25 12:37:21;;;;;;;;;;;17.30;99.90;;;;;;5044643;28;20045;-44
2022/10/25 12:39:47;;;;;;;7.82;2.90;;;17.60;99.90;;;;;;5043762;28;19990;-44
2022/10/25 12:42:20;;;;;;;10.63;3.10;;;17.70;99.90;;;;;;5037036;28;20624;-47
2022/10/25 12:45:09;;;;;;;14.40;3.38;;;17.70;99.90;;;;;;5042711;28;20037;-45
2022/10/25 12:48:00;;;;;;;11.50;3.17;;;17.60;99.90;;;;;;5049409;28;20491;-47
2022/10/25 12:50:46;;;;;;;11.15;3.38;;;17.90;99.90;;;;;;5049444;28;20045;-46
2022/10/25 12:53:27;;;;;;;6.93;2.53;;;18.20;99.90;;;;;;5049568;28;20028;-45